createdAt,value
2023-05-17T00:00:33.786Z,57.9643
2023-05-17T00:01:35.525Z,57.8871
2023-05-17T00:02:37.027Z,57.8116
2023-05-17T00:03:38.711Z,57.6470
2023-05-17T00:04:40.355Z,57.6142
2023-05-17T00:05:42.100Z,57.5310
2023-05-17T00:06:43.731Z,57.5995
2023-05-17T00:07:45.334Z,57.6807
2023-05-17T00:08:46.972Z,57.6472
2023-05-17T00:09:48.654Z,57.5891
2023-05-17T00:10:50.290Z,57.5023
2023-05-17T00:11:51.898Z,57.3926
2023-05-17T00:12:53.518Z,57.2865
2023-05-17T00:13:55.182Z,57.1306
2023-05-17T00:14:56.876Z,57.1663
2023-05-17T00:15:58.550Z,57.2860
2023-05-17T00:17:00.181Z,57.3323
2023-05-17T00:18:01.914Z,57.3445
2023-05-17T00:19:03.518Z,57.3165
2023-05-17T00:20:05.034Z,57.2197
2023-05-17T00:21:06.778Z,57.1683
2023-05-17T00:22:08.424Z,57.0091
2023-05-17T00:23:09.983Z,56.9400
2023-05-17T00:24:11.683Z,56.8783
2023-05-17T00:25:13.290Z,56.8112
2023-05-17T00:26:14.918Z,56.6836
2023-05-17T00:27:16.614Z,56.6544
2023-05-17T00:28:18.230Z,56.7007
2023-05-17T00:29:19.913Z,56.6641
2023-05-17T00:30:21.499Z,56.6227
2023-05-17T00:31:23.192Z,56.5307
2023-05-17T00:32:24.891Z,56.4764
2023-05-17T00:33:26.529Z,56.6356
2023-05-17T00:34:28.174Z,56.6581
2023-05-17T00:35:29.965Z,56.6171
2023-05-17T00:36:31.461Z,56.5629
2023-05-17T00:37:33.069Z,56.5056
2023-05-17T00:38:34.678Z,56.3842
2023-05-17T00:39:36.262Z,56.3153
2023-05-17T00:40:37.864Z,56.2534
2023-05-17T00:41:39.615Z,56.2371
2023-05-17T00:42:41.259Z,56.3073
2023-05-17T00:43:42.820Z,56.4093
2023-05-17T00:44:44.497Z,56.4019
2023-05-17T00:45:46.113Z,56.2834
2023-05-17T00:46:47.834Z,56.2512
2023-05-17T00:47:49.655Z,56.2020
2023-05-17T00:48:51.133Z,56.0881
2023-05-17T00:49:53.603Z,56.0412
2023-05-17T00:50:54.339Z,55.8830
2023-05-17T00:51:56.021Z,55.8025
2023-05-17T00:52:57.672Z,55.7777
2023-05-17T00:53:59.272Z,55.7441
2023-05-17T00:55:00.937Z,55.8967
2023-05-17T00:56:02.548Z,55.9859
2023-05-17T00:57:04.603Z,56.0878
2023-05-17T00:58:06.628Z,56.0555
2023-05-17T00:59:07.532Z,56.0075
2023-05-17T01:00:09.158Z,55.9546
2023-05-17T01:01:10.806Z,55.8308
2023-05-17T01:02:12.541Z,55.7236
2023-05-17T01:03:14.200Z,55.6965
2023-05-17T01:04:15.917Z,55.7374
2023-05-17T01:05:17.418Z,55.7434
2023-05-17T01:06:19.054Z,55.8422
2023-05-17T01:07:20.777Z,55.9214
2023-05-17T01:08:23.146Z,55.8925
2023-05-17T01:09:23.974Z,55.8300
2023-05-17T01:10:25.709Z,55.7769
2023-05-17T01:11:27.241Z,55.7030
2023-05-17T01:12:28.934Z,55.6059
2023-05-17T01:13:30.569Z,55.5076
2023-05-17T01:14:32.218Z,55.4080
2023-05-17T01:15:33.855Z,55.3457
2023-05-17T01:16:35.530Z,55.2694
2023-05-17T01:17:37.272Z,55.2533
2023-05-17T01:18:38.939Z,55.1805
2023-05-17T01:19:40.479Z,55.2878
2023-05-17T01:20:42.073Z,55.4512
2023-05-17T01:21:43.762Z,55.4662
2023-05-17T01:22:45.512Z,55.3735
2023-05-17T01:23:47.777Z,55.2567
2023-05-17T01:24:49.684Z,55.2073
2023-05-17T01:25:50.339Z,55.0745
2023-05-17T01:26:52.072Z,55.0620
2023-05-17T01:27:54.092Z,55.1547
2023-05-17T01:28:55.278Z,55.2148
2023-05-17T01:29:57.664Z,55.2102
2023-05-17T01:30:58.597Z,55.2152
2023-05-17T01:32:00.232Z,55.1899
2023-05-17T01:33:01.993Z,55.1081
2023-05-17T01:34:06.189Z,55.0559
2023-05-17T01:35:05.225Z,54.9746
2023-05-17T01:36:06.795Z,54.9241
2023-05-17T01:37:08.472Z,54.9360
2023-05-17T01:38:10.096Z,54.9626
2023-05-17T01:39:11.721Z,54.9250
2023-05-17T01:40:13.398Z,54.7994
2023-05-17T01:41:15.025Z,54.7825
2023-05-17T01:42:16.693Z,54.9183
2023-05-17T01:43:18.458Z,55.0114
2023-05-17T01:44:19.991Z,54.9729
2023-05-17T01:45:21.644Z,54.9711
2023-05-17T01:46:23.272Z,54.8965
2023-05-17T01:47:24.948Z,54.7687
2023-05-17T01:48:26.601Z,54.7162
2023-05-17T01:49:28.262Z,54.7357
2023-05-17T01:50:29.841Z,54.7991
2023-05-17T01:51:31.529Z,54.7468
2023-05-17T01:52:33.176Z,54.7118
2023-05-17T01:53:35.128Z,54.7347
2023-05-17T01:54:37.039Z,54.7547
2023-05-17T01:55:38.157Z,54.6597
2023-05-17T01:56:39.771Z,54.6013
2023-05-17T01:57:41.456Z,54.5401
2023-05-17T01:58:43.055Z,54.6315
2023-05-17T01:59:44.696Z,54.7036
2023-05-17T02:00:46.339Z,54.6852
2023-05-17T02:01:48.013Z,54.4879
2023-05-17T02:02:49.668Z,54.4038
2023-05-17T02:03:51.361Z,54.3467
2023-05-17T02:04:52.923Z,54.3707
2023-05-17T02:05:54.803Z,54.3624
2023-05-17T02:06:56.315Z,54.3812
2023-05-17T02:07:58.107Z,54.3360
2023-05-17T02:08:59.648Z,54.3335
2023-05-17T02:10:01.949Z,54.3583
2023-05-17T02:11:02.926Z,54.3339
2023-05-17T02:12:04.623Z,54.3737
2023-05-17T02:13:06.251Z,54.4475
2023-05-17T02:14:07.940Z,54.4486
2023-05-17T02:15:09.628Z,54.3783
2023-05-17T02:16:11.220Z,54.3664
2023-05-17T02:17:12.875Z,54.3935
2023-05-17T02:18:14.728Z,54.2759
2023-05-17T02:19:17.327Z,54.2778
2023-05-17T02:20:17.794Z,54.2417
2023-05-17T02:21:19.457Z,54.1862
2023-05-17T02:22:21.159Z,54.1557
2023-05-17T02:23:22.780Z,54.2539
2023-05-17T02:24:24.556Z,54.3464
2023-05-17T02:25:26.086Z,54.3313
2023-05-17T02:26:27.867Z,54.2363
2023-05-17T02:27:29.339Z,54.1931
2023-05-17T02:28:31.038Z,54.2152
2023-05-17T02:29:33.728Z,54.1344
2023-05-17T02:30:34.389Z,54.7479
2023-05-17T02:31:36.063Z,60.9666
2023-05-17T02:32:37.729Z,59.4503
2023-05-17T02:33:40.246Z,58.9088
2023-05-17T02:34:40.930Z,58.8937
2023-05-17T02:35:42.543Z,58.1274
2023-05-17T02:36:44.179Z,57.8295
2023-05-17T02:37:46.702Z,57.8518
2023-05-17T02:38:47.468Z,57.4596
2023-05-17T02:39:49.189Z,57.2453
2023-05-17T02:40:50.744Z,57.2264
2023-05-17T02:41:52.407Z,57.5548
2023-05-17T02:42:54.037Z,57.2739
2023-05-17T02:43:55.713Z,57.0200
2023-05-17T02:44:57.333Z,57.0330
2023-05-17T02:45:59.017Z,56.7823
2023-05-17T02:47:00.604Z,56.5342
2023-05-17T02:48:03.215Z,56.2183
2023-05-17T02:49:03.889Z,56.4315
2023-05-17T02:50:06.290Z,56.8462
2023-05-17T02:51:07.295Z,56.8758
2023-05-17T02:52:08.860Z,56.6049
2023-05-17T02:53:10.502Z,56.0656
2023-05-17T02:54:12.171Z,54.5397
2023-05-17T02:55:13.831Z,52.8380
2023-05-17T02:56:15.511Z,51.3520
2023-05-17T02:57:17.058Z,50.4071
2023-05-17T02:58:18.730Z,50.1814
2023-05-17T02:59:20.496Z,50.2605
2023-05-17T03:00:22.066Z,50.3997
2023-05-17T03:01:23.661Z,50.5876
2023-05-17T03:02:25.508Z,50.7934
2023-05-17T03:03:27.057Z,51.0200
2023-05-17T03:04:28.674Z,51.2219
2023-05-17T03:05:30.843Z,51.2139
2023-05-17T03:06:31.998Z,50.8715
2023-05-17T03:07:33.594Z,50.6799
2023-05-17T03:08:35.277Z,50.6654
2023-05-17T03:09:36.831Z,50.7743
2023-05-17T03:10:38.582Z,51.0224
2023-05-17T03:11:40.147Z,51.3052
2023-05-17T03:12:41.810Z,51.2226
2023-05-17T03:13:43.420Z,50.8745
2023-05-17T03:14:45.113Z,50.3645
2023-05-17T03:15:47.206Z,50.1699
2023-05-17T03:16:48.437Z,50.3186
2023-05-17T03:17:50.070Z,50.7343
2023-05-17T03:18:51.825Z,51.0269
2023-05-17T03:19:53.431Z,51.0282
2023-05-17T03:20:55.709Z,50.6372
2023-05-17T03:21:56.675Z,50.2611
2023-05-17T03:22:58.229Z,50.2366
2023-05-17T03:24:00.039Z,50.3878
2023-05-17T03:25:01.555Z,50.7053
2023-05-17T03:26:03.289Z,50.9626
2023-05-17T03:27:04.946Z,50.7673
2023-05-17T03:28:06.529Z,50.1062
2023-05-17T03:29:08.142Z,49.9432
2023-05-17T03:30:09.825Z,50.2026
2023-05-17T03:31:11.460Z,50.4636
2023-05-17T03:32:13.090Z,50.6563
2023-05-17T03:33:14.872Z,50.4846
2023-05-17T03:34:16.417Z,49.9853
2023-05-17T03:35:18.090Z,49.7403
2023-05-17T03:36:19.714Z,49.8379
2023-05-17T03:37:21.461Z,50.1257
2023-05-17T03:38:22.998Z,50.4790
2023-05-17T03:39:24.746Z,50.5932
2023-05-17T03:40:26.383Z,50.3876
2023-05-17T03:41:27.998Z,50.2361
2023-05-17T03:42:29.613Z,50.0943
2023-05-17T03:43:31.383Z,50.1332
2023-05-17T03:44:32.856Z,50.3128
2023-05-17T03:45:34.679Z,50.3088
2023-05-17T03:46:36.272Z,50.1504
2023-05-17T03:47:37.951Z,50.0335
2023-05-17T03:48:39.538Z,49.9627
2023-05-17T03:49:41.131Z,50.0905
2023-05-17T03:50:42.834Z,50.2192
2023-05-17T03:51:44.828Z,50.3771
2023-05-17T03:52:46.762Z,50.4179
2023-05-17T03:53:47.763Z,50.2817
2023-05-17T03:54:49.371Z,50.1843
2023-05-17T03:55:51.708Z,50.0776
2023-05-17T03:56:52.671Z,50.0851
2023-05-17T03:57:54.329Z,50.0644
2023-05-17T03:58:55.974Z,50.1971
2023-05-17T03:59:57.578Z,50.2869
2023-05-17T04:00:59.291Z,50.2894
2023-05-17T04:02:00.966Z,50.2753
2023-05-17T04:03:02.586Z,50.1702
2023-05-17T04:04:04.225Z,50.1135
2023-05-17T04:05:05.838Z,50.1581
2023-05-17T04:06:07.504Z,50.2226
2023-05-17T04:07:09.175Z,50.1771
2023-05-17T04:08:10.875Z,50.1393
2023-05-17T04:09:12.398Z,50.1217
2023-05-17T04:10:14.069Z,50.2446
2023-05-17T04:11:15.724Z,50.1163
2023-05-17T04:12:17.454Z,50.1268
2023-05-17T04:13:19.023Z,50.0757
2023-05-17T04:14:20.793Z,50.1463
2023-05-17T04:15:22.337Z,50.1810
2023-05-17T04:16:23.974Z,50.0941
2023-05-17T04:17:26.270Z,50.0555
2023-05-17T04:18:27.358Z,50.0555
2023-05-17T04:19:29.864Z,50.1780
2023-05-17T04:20:30.554Z,50.2926
2023-05-17T04:21:32.306Z,50.4466
2023-05-17T04:22:34.284Z,50.4244
2023-05-17T04:23:35.642Z,50.3262
2023-05-17T04:24:37.160Z,50.2829
2023-05-17T04:25:38.884Z,50.2034
2023-05-17T04:26:40.531Z,50.1369
2023-05-17T04:27:42.188Z,50.1513
2023-05-17T04:28:43.785Z,50.1188
2023-05-17T04:29:45.513Z,50.1210
2023-05-17T04:30:46.997Z,50.1392
2023-05-17T04:31:48.628Z,50.1552
2023-05-17T04:32:50.363Z,50.1103
2023-05-17T04:33:52.099Z,50.0986
2023-05-17T04:34:53.586Z,50.1510
2023-05-17T04:35:55.272Z,50.2086
2023-05-17T04:36:56.899Z,50.2219
2023-05-17T04:37:58.524Z,50.2022
2023-05-17T04:39:00.197Z,50.1760
2023-05-17T04:40:01.778Z,50.1247
2023-05-17T04:41:03.429Z,50.0529
2023-05-17T04:42:05.097Z,50.0463
2023-05-17T04:43:06.777Z,50.1737
2023-05-17T04:44:08.440Z,50.2342
2023-05-17T04:45:10.018Z,50.1671
2023-05-17T04:46:11.694Z,50.1251
2023-05-17T04:47:13.325Z,50.0932
2023-05-17T04:48:15.759Z,50.0229
2023-05-17T04:49:16.673Z,49.9887
2023-05-17T04:50:19.185Z,50.0016
2023-05-17T04:51:19.911Z,50.1629
2023-05-17T04:52:21.573Z,50.1831
2023-05-17T04:53:23.271Z,49.8617
2023-05-17T04:54:24.968Z,49.2106
2023-05-17T04:55:26.797Z,48.6694
2023-05-17T04:56:28.313Z,47.9293
2023-05-17T04:57:30.979Z,47.2423
2023-05-17T04:58:31.559Z,47.2360
2023-05-17T04:59:33.225Z,46.9402
2023-05-17T05:00:35.960Z,46.6529
2023-05-17T05:01:36.456Z,46.3367
2023-05-17T05:02:38.167Z,46.2106
2023-05-17T05:03:39.996Z,45.8563
2023-05-17T05:04:41.619Z,45.9184
2023-05-17T05:05:43.116Z,46.3412
2023-05-17T05:06:44.858Z,45.5567
2023-05-17T05:07:47.362Z,44.6318
2023-05-17T05:08:48.158Z,44.2965
2023-05-17T05:09:49.765Z,44.0710
2023-05-17T05:10:51.291Z,44.1890
2023-05-17T05:11:53.054Z,44.1974
2023-05-17T05:12:54.631Z,43.6578
2023-05-17T05:13:56.308Z,43.7979
2023-05-17T05:14:59.582Z,43.5664
2023-05-17T05:15:59.659Z,43.2288
2023-05-17T05:17:01.184Z,43.4606
2023-05-17T05:18:02.982Z,43.4200
2023-05-17T05:19:04.861Z,43.7369
2023-05-17T05:20:06.185Z,43.3442
2023-05-17T05:21:07.841Z,43.1408
2023-05-17T05:22:09.493Z,43.2522
2023-05-17T05:23:11.528Z,42.6963
2023-05-17T05:24:13.726Z,43.0105
2023-05-17T05:25:14.938Z,42.9794
2023-05-17T05:26:16.203Z,42.9860
2023-05-17T05:27:17.675Z,42.6987
2023-05-17T05:28:19.386Z,42.3615
2023-05-17T05:29:21.030Z,43.0520
2023-05-17T05:30:22.721Z,42.8361
2023-05-17T05:31:25.250Z,42.8630
2023-05-17T05:32:25.959Z,42.6428
2023-05-17T05:33:27.757Z,42.5790
2023-05-17T05:34:29.353Z,42.8592
2023-05-17T05:35:31.069Z,42.5321
2023-05-17T05:36:32.530Z,42.0079
2023-05-17T05:37:34.266Z,42.1376
2023-05-17T05:38:35.849Z,42.3287
2023-05-17T05:39:37.578Z,42.5578
2023-05-17T05:40:39.095Z,42.7398
2023-05-17T05:41:40.772Z,42.6240
2023-05-17T05:42:42.336Z,42.7069
2023-05-17T05:43:44.064Z,42.9450
2023-05-17T05:44:45.868Z,42.4768
2023-05-17T05:45:47.370Z,42.1701
2023-05-17T05:46:49.057Z,41.8978
2023-05-17T05:47:50.682Z,41.9776
2023-05-17T05:48:52.340Z,42.4068
2023-05-17T05:49:54.964Z,42.4994
2023-05-17T05:50:55.543Z,42.1160
2023-05-17T05:51:57.269Z,42.4440
2023-05-17T05:53:10.444Z,42.4874
2023-05-17T05:54:00.607Z,42.1225
2023-05-17T05:55:02.144Z,42.1436
2023-05-17T05:56:03.868Z,42.4593
2023-05-17T05:57:05.415Z,42.2918
2023-05-17T05:58:07.046Z,42.7896
2023-05-17T05:59:08.841Z,42.4131
2023-05-17T06:00:10.356Z,42.2592
2023-05-17T06:01:12.019Z,42.2647
2023-05-17T06:02:14.627Z,42.2603
2023-05-17T06:03:15.302Z,42.0834
2023-05-17T06:04:16.987Z,42.0672
2023-05-17T06:05:18.592Z,42.1163
2023-05-17T06:06:20.303Z,41.8045
2023-05-17T06:07:21.919Z,41.5441
2023-05-17T06:08:23.625Z,42.2829
2023-05-17T06:09:25.154Z,41.8011
2023-05-17T06:10:27.011Z,41.7957
2023-05-17T06:11:28.571Z,42.5239
2023-05-17T06:12:30.097Z,42.5338
2023-05-17T06:13:31.874Z,42.5752
2023-05-17T06:14:33.424Z,42.6898
2023-05-17T06:15:35.105Z,42.2740
2023-05-17T06:16:36.711Z,41.8679
2023-05-17T06:17:38.383Z,41.7948
2023-05-17T06:18:41.028Z,41.7415
2023-05-17T06:19:41.766Z,41.4999
2023-05-17T06:20:44.317Z,41.6220
2023-05-17T06:21:45.852Z,41.7925
2023-05-17T06:22:46.694Z,41.6602
2023-05-17T06:23:48.334Z,42.4602
2023-05-17T06:24:52.188Z,42.4333
2023-05-17T06:25:56.236Z,42.2727
2023-05-17T06:26:57.901Z,42.5246
2023-05-17T06:27:59.498Z,41.9994
2023-05-17T06:29:01.183Z,42.6786
2023-05-17T06:30:06.373Z,43.0716
2023-05-17T06:31:04.482Z,42.9071
2023-05-17T06:32:06.216Z,42.3489
2023-05-17T06:33:07.834Z,42.2273
2023-05-17T06:34:09.523Z,42.1344
2023-05-17T06:35:11.114Z,42.4688
2023-05-17T06:36:12.708Z,41.8771
2023-05-17T06:37:14.382Z,41.6723
2023-05-17T06:38:16.002Z,41.6967
2023-05-17T06:39:17.630Z,41.7273
2023-05-17T06:40:19.378Z,43.7691
2023-05-17T06:41:21.842Z,42.7973
2023-05-17T06:42:22.700Z,42.4426
2023-05-17T06:43:24.270Z,42.1788
2023-05-17T06:44:25.913Z,43.7583
2023-05-17T06:45:27.526Z,43.3214
2023-05-17T06:46:29.271Z,43.9054
2023-05-17T06:47:30.879Z,43.5480
2023-05-17T06:48:32.712Z,42.8497
2023-05-17T06:49:34.117Z,43.8770
2023-05-17T06:50:35.842Z,43.5836
2023-05-17T06:51:38.344Z,44.7285
2023-05-17T06:52:39.852Z,44.5972
2023-05-17T06:53:40.794Z,43.9450
2023-05-17T06:54:42.365Z,44.5926
2023-05-17T06:55:43.995Z,44.3007
2023-05-17T06:56:45.678Z,45.7152
2023-05-17T06:57:47.307Z,45.9908
2023-05-17T06:58:48.914Z,46.3558
2023-05-17T06:59:50.598Z,46.7175
2023-05-17T07:00:52.360Z,46.5962
2023-05-17T07:01:54.106Z,47.7070
2023-05-17T07:02:55.562Z,48.8581
2023-05-17T07:03:57.285Z,52.5839
2023-05-17T07:04:58.935Z,48.8643
2023-05-17T07:06:00.541Z,49.2721
2023-05-17T07:07:02.174Z,47.7084
2023-05-17T07:08:03.777Z,49.0518
2023-05-17T07:09:05.488Z,50.0480
2023-05-17T07:10:07.107Z,51.3561
2023-05-17T07:11:09.491Z,50.9448
2023-05-17T07:12:10.865Z,50.3117
2023-05-17T07:13:11.997Z,48.9258
2023-05-17T07:14:13.823Z,49.5518
2023-05-17T07:15:15.336Z,52.4774
2023-05-17T07:16:16.943Z,50.8905
2023-05-17T07:17:18.576Z,52.5253
2023-05-17T07:18:21.087Z,48.7998
2023-05-17T07:19:21.961Z,49.1569
2023-05-17T07:20:23.567Z,50.2723
2023-05-17T07:21:25.395Z,52.6812
2023-05-17T07:22:27.295Z,50.9749
2023-05-17T07:23:28.483Z,52.6991
2023-05-17T07:24:30.073Z,48.3005
2023-05-17T07:25:31.809Z,49.5043
2023-05-17T07:26:33.840Z,51.6854
2023-05-17T07:27:35.127Z,53.0637
2023-05-17T07:28:36.693Z,50.4971
2023-05-17T07:29:38.365Z,53.8233
2023-05-17T07:30:39.950Z,48.2620
2023-05-17T07:31:41.982Z,48.9926
2023-05-17T07:32:43.309Z,52.4958
2023-05-17T07:33:45.088Z,52.8212
2023-05-17T07:34:46.589Z,51.0370
2023-05-17T07:35:48.261Z,53.6830
2023-05-17T07:36:49.884Z,48.6539
2023-05-17T07:37:51.589Z,49.1305
2023-05-17T07:38:53.215Z,52.2797
2023-05-17T07:39:54.851Z,53.0358
2023-05-17T07:40:56.519Z,50.6714
2023-05-17T07:41:58.149Z,53.1771
2023-05-17T07:42:59.770Z,48.3553
2023-05-17T07:44:01.492Z,49.2127
2023-05-17T07:45:03.070Z,52.7257
2023-05-17T07:46:04.743Z,52.0868
2023-05-17T07:47:06.451Z,51.7653
2023-05-17T07:48:08.084Z,52.0969
2023-05-17T07:49:09.730Z,48.6221
2023-05-17T07:50:11.869Z,49.6396
2023-05-17T07:51:12.908Z,53.4100
2023-05-17T07:52:14.715Z,52.0772
2023-05-17T07:53:16.173Z,51.7499
2023-05-17T07:54:17.866Z,52.6588
2023-05-17T07:55:20.316Z,48.7064
2023-05-17T07:56:21.167Z,49.3524
2023-05-17T07:57:22.815Z,53.4852
2023-05-17T07:58:24.419Z,51.8197
2023-05-17T07:59:26.056Z,51.7153
2023-05-17T08:00:27.760Z,50.5100
2023-05-17T08:01:29.352Z,48.3890
2023-05-17T08:02:31.662Z,49.6658
2023-05-17T08:03:33.411Z,52.1780
2023-05-17T08:04:34.384Z,51.4144
2023-05-17T08:05:36.181Z,51.5527
2023-05-17T08:06:37.622Z,50.0504
2023-05-17T08:07:39.348Z,48.5296
2023-05-17T08:08:40.955Z,48.7562
2023-05-17T08:09:42.609Z,52.3934
2023-05-17T08:10:44.260Z,51.3518
2023-05-17T08:11:45.927Z,51.8346
2023-05-17T08:12:47.554Z,49.6404
2023-05-17T08:13:49.128Z,48.3381
2023-05-17T08:14:51.040Z,48.7068
2023-05-17T08:15:55.980Z,51.8459
2023-05-17T08:16:54.145Z,50.9404
2023-05-17T08:17:55.939Z,51.8421
2023-05-17T08:18:58.380Z,48.6068
2023-05-17T08:19:59.168Z,48.8328
2023-05-17T08:21:00.657Z,49.4263
2023-05-17T08:22:02.621Z,52.2650
2023-05-17T08:23:04.022Z,50.2500
2023-05-17T08:24:05.660Z,50.9464
2023-05-17T08:25:07.284Z,47.7790
2023-05-17T08:26:09.006Z,48.7295
2023-05-17T08:27:10.562Z,49.5925
2023-05-17T08:28:12.234Z,51.9108
2023-05-17T08:29:13.865Z,50.0032
2023-05-17T08:30:27.833Z,52.4775
2023-05-17T08:31:17.132Z,47.5631
2023-05-17T08:32:18.767Z,48.5706
2023-05-17T08:33:20.568Z,50.6623
2023-05-17T08:34:22.136Z,52.2497
2023-05-17T08:35:24.494Z,49.9743
2023-05-17T08:36:25.342Z,51.9328
2023-05-17T08:37:26.981Z,47.9572
2023-05-17T08:38:28.704Z,49.0735
2023-05-17T08:39:30.308Z,51.5777
2023-05-17T08:40:32.481Z,54.0138
2023-05-17T08:41:33.674Z,50.8892
2023-05-17T08:42:35.184Z,51.7682
2023-05-17T08:43:36.829Z,48.7275
2023-05-17T08:44:38.471Z,49.3088
2023-05-17T08:45:40.041Z,51.4574
2023-05-17T08:46:41.734Z,52.6985
2023-05-17T08:47:43.424Z,50.5188
2023-05-17T08:48:45.092Z,50.9791
2023-05-17T08:49:48.172Z,48.9188
2023-05-17T08:50:48.367Z,49.1814
2023-05-17T08:51:50.011Z,51.7065
2023-05-17T08:52:51.593Z,52.2280
2023-05-17T08:53:53.252Z,51.3535
2023-05-17T08:54:54.903Z,51.2933
2023-05-17T08:55:57.521Z,48.3844
2023-05-17T08:56:58.268Z,49.0507
2023-05-17T08:57:59.799Z,51.7568
2023-05-17T08:59:01.480Z,50.8432
2023-05-17T09:00:03.135Z,51.3841
2023-05-17T09:01:05.877Z,48.0431
2023-05-17T09:02:07.533Z,48.0532
2023-05-17T09:03:08.330Z,50.2645
2023-05-17T09:04:09.924Z,52.2612
2023-05-17T09:05:11.567Z,50.6949
2023-05-17T09:06:13.156Z,50.5871
2023-05-17T09:07:15.271Z,47.6033
2023-05-17T09:08:16.408Z,47.9501
2023-05-17T09:09:18.088Z,49.2352
2023-05-17T09:10:19.643Z,52.3982
2023-05-17T09:11:21.534Z,50.0106
2023-05-17T09:12:25.368Z,50.9877
2023-05-17T09:13:24.951Z,47.3352
2023-05-17T09:14:26.641Z,47.7328
2023-05-17T09:15:28.145Z,48.7439
2023-05-17T09:16:30.514Z,51.9941
2023-05-17T09:17:31.372Z,49.5539
2023-05-17T09:18:33.162Z,49.6554
2023-05-17T09:19:34.671Z,46.8889
2023-05-17T09:20:36.148Z,47.6607
2023-05-17T09:21:37.815Z,49.0383
2023-05-17T09:22:39.444Z,51.8977
2023-05-17T09:23:43.523Z,49.8288
2023-05-17T09:24:43.727Z,50.9792
2023-05-17T09:25:44.373Z,46.6814
2023-05-17T09:26:46.992Z,47.6355
2023-05-17T09:27:47.732Z,48.8913
2023-05-17T09:28:49.258Z,52.2971
2023-05-17T09:29:51.051Z,50.2281
2023-05-17T09:30:52.578Z,51.3619
2023-05-17T09:31:54.249Z,47.3392
2023-05-17T09:32:55.986Z,47.7918
2023-05-17T09:33:57.553Z,48.9698
2023-05-17T09:34:59.223Z,51.0616
2023-05-17T09:36:00.881Z,49.2455
2023-05-17T09:37:02.462Z,50.3138
2023-05-17T09:38:04.153Z,46.5521
2023-05-17T09:39:06.707Z,47.3573
2023-05-17T09:40:08.467Z,48.7836
2023-05-17T09:41:08.978Z,51.6321
2023-05-17T09:42:10.708Z,50.2208
2023-05-17T09:43:12.239Z,49.6943
2023-05-17T09:44:13.987Z,46.9517
2023-05-17T09:45:15.651Z,46.6701
2023-05-17T09:46:17.247Z,47.9182
2023-05-17T09:47:18.925Z,51.3520
2023-05-17T09:48:20.673Z,49.8089
2023-05-17T09:49:22.203Z,49.7767
2023-05-17T09:50:26.164Z,46.5722
2023-05-17T09:51:25.471Z,46.7954
2023-05-17T09:52:27.161Z,47.2937
2023-05-17T09:53:28.696Z,51.2905
2023-05-17T09:54:30.414Z,50.5948
2023-05-17T09:55:32.166Z,49.7478
2023-05-17T09:56:33.659Z,47.0385
2023-05-17T09:57:35.398Z,46.8741
2023-05-17T09:58:36.958Z,48.1028
2023-05-17T09:59:38.677Z,51.2582
2023-05-17T10:00:40.276Z,50.7231
2023-05-17T10:01:42.958Z,49.4932
2023-05-17T10:02:43.719Z,48.2580
2023-05-17T10:03:45.219Z,46.8799
2023-05-17T10:04:46.864Z,47.6703
2023-05-17T10:05:48.561Z,50.6312
2023-05-17T10:06:51.991Z,50.4568
2023-05-17T10:07:51.990Z,48.6769
2023-05-17T10:08:53.415Z,47.0323
2023-05-17T10:09:55.463Z,45.8123
2023-05-17T10:10:56.795Z,46.5213
2023-05-17T10:11:58.411Z,49.2440
2023-05-17T10:13:00.050Z,48.5552
2023-05-17T10:14:01.644Z,49.2646
2023-05-17T10:15:03.395Z,45.1840
2023-05-17T10:16:05.991Z,46.2138
2023-05-17T10:17:06.654Z,46.6821
2023-05-17T10:18:08.359Z,50.3922
2023-05-17T10:19:10.059Z,47.9210
2023-05-17T10:20:12.456Z,48.6964
2023-05-17T10:21:13.212Z,45.4937
2023-05-17T10:22:22.671Z,46.1607
2023-05-17T10:23:16.583Z,48.9465
2023-05-17T10:24:18.209Z,49.3565
2023-05-17T10:25:19.880Z,49.1069
2023-05-17T10:26:21.500Z,45.6627
2023-05-17T10:27:23.097Z,45.7297
2023-05-17T10:28:24.780Z,46.7428
2023-05-17T10:29:26.380Z,49.4218
2023-05-17T10:30:28.094Z,48.6115
2023-05-17T10:31:29.775Z,49.4388
2023-05-17T10:32:31.372Z,45.6032
2023-05-17T10:33:33.193Z,45.4794
2023-05-17T10:34:34.658Z,45.9799
2023-05-17T10:35:36.337Z,48.5780
2023-05-17T10:36:38.023Z,47.4747
2023-05-17T10:37:39.727Z,46.4590
2023-05-17T10:38:43.073Z,43.8957
2023-05-17T10:39:42.766Z,44.5893
2023-05-17T10:40:44.881Z,45.5619
2023-05-17T10:41:46.236Z,48.9349
2023-05-17T10:42:48.029Z,49.9350
2023-05-17T10:43:49.530Z,45.7304
2023-05-17T10:44:51.327Z,44.8935
2023-05-17T10:45:52.884Z,44.8484
2023-05-17T10:46:54.453Z,47.9610
2023-05-17T10:47:58.179Z,48.9497
2023-05-17T10:48:57.876Z,48.0158
2023-05-17T10:49:59.466Z,44.6371
2023-05-17T10:51:02.074Z,45.0309
2023-05-17T10:52:03.113Z,46.1232
2023-05-17T10:53:04.333Z,49.2903
2023-05-17T10:54:05.975Z,47.3417
2023-05-17T10:55:07.677Z,47.6915
2023-05-17T10:56:09.328Z,45.0763
2023-05-17T10:57:10.979Z,45.6456
2023-05-17T10:58:12.598Z,48.2691
2023-05-17T10:59:14.226Z,48.9343
2023-05-17T11:00:15.960Z,48.3100
2023-05-17T11:01:17.555Z,45.1958
2023-05-17T11:02:19.146Z,44.9551
2023-05-17T11:03:21.535Z,45.3806
2023-05-17T11:04:22.496Z,47.6940
2023-05-17T11:05:24.184Z,48.9737
2023-05-17T11:06:26.102Z,48.1906
2023-05-17T11:07:27.452Z,44.1075
2023-05-17T11:08:29.029Z,45.5152
2023-05-17T11:09:30.729Z,46.0189
2023-05-17T11:10:32.259Z,48.9636
2023-05-17T11:11:34.978Z,48.3852
2023-05-17T11:12:37.367Z,48.5604
2023-05-17T11:13:37.141Z,44.0362
2023-05-17T11:14:38.841Z,45.3721
2023-05-17T11:15:40.532Z,46.6754
2023-05-17T11:16:42.198Z,48.7072
2023-05-17T11:17:43.833Z,48.2647
2023-05-17T11:18:45.548Z,45.6029
2023-05-17T11:19:47.186Z,44.6749
2023-05-17T11:20:48.861Z,44.7684
2023-05-17T11:21:50.425Z,47.2078
2023-05-17T11:22:51.984Z,49.6684
2023-05-17T11:23:53.638Z,49.1295
2023-05-17T11:24:55.284Z,44.3044
2023-05-17T11:26:00.403Z,44.4534
2023-05-17T11:26:58.616Z,45.4067
2023-05-17T11:28:00.235Z,47.3792
2023-05-17T11:29:01.862Z,49.1983
2023-05-17T11:30:03.473Z,47.8800
2023-05-17T11:31:05.219Z,43.5413
2023-05-17T11:32:06.851Z,44.2334
2023-05-17T11:33:20.612Z,45.3582
2023-05-17T11:34:10.113Z,48.4633
2023-05-17T11:35:11.745Z,48.4519
2023-05-17T11:36:13.383Z,45.8925
2023-05-17T11:37:16.004Z,43.9145
2023-05-17T11:38:16.695Z,45.0428
2023-05-17T11:39:18.364Z,47.0513
2023-05-17T11:40:19.994Z,48.9169
2023-05-17T11:42:23.330Z,44.0657
2023-05-17T11:43:24.989Z,44.6297
2023-05-17T11:44:26.609Z,44.9022
2023-05-17T11:45:28.577Z,47.4659
2023-05-17T11:46:29.873Z,48.5076
2023-05-17T11:47:31.607Z,47.9306
2023-05-17T11:48:33.188Z,43.6990
2023-05-17T11:49:36.331Z,44.2428
2023-05-17T11:50:36.395Z,45.4074
2023-05-17T11:51:38.109Z,48.3327
2023-05-17T11:52:39.781Z,48.8453
2023-05-17T11:53:41.308Z,45.9837
2023-05-17T11:54:43.067Z,43.1286
2023-05-17T11:55:44.690Z,44.2685
2023-05-17T11:56:46.299Z,45.5299
2023-05-17T11:57:47.909Z,48.6117
2023-05-17T11:58:49.554Z,48.6538
2023-05-17T11:59:51.238Z,45.4745
2023-05-17T12:00:52.872Z,43.0644
2023-05-17T12:01:54.479Z,44.5948
2023-05-17T12:02:56.251Z,45.9121
2023-05-17T12:03:57.802Z,49.9826
2023-05-17T12:04:59.549Z,48.2790
2023-05-17T12:06:01.084Z,44.2669
2023-05-17T12:07:02.744Z,43.9002
2023-05-17T12:08:04.383Z,45.1984
2023-05-17T12:09:07.075Z,47.9753
2023-05-17T12:10:08.455Z,47.4205
2023-05-17T12:11:09.296Z,48.1581
2023-05-17T12:12:10.925Z,43.1157
2023-05-17T12:13:13.522Z,44.3329
2023-05-17T12:14:14.211Z,44.7966
2023-05-17T12:15:15.871Z,48.1959
2023-05-17T12:16:18.408Z,48.0051
2023-05-17T12:17:19.256Z,45.1708
2023-05-17T12:18:20.988Z,42.5882
2023-05-17T12:19:22.563Z,43.9157
2023-05-17T12:20:24.194Z,44.1804
2023-05-17T12:21:25.701Z,47.1526
2023-05-17T12:22:27.340Z,48.2669
2023-05-17T12:23:29.057Z,44.1953
2023-05-17T12:24:30.653Z,42.1829
2023-05-17T12:25:32.339Z,43.8437
2023-05-17T12:26:33.930Z,44.7744